sensor_id;sensor_type;location;lat;lon;timestamp;P1;durP1;ratioP1;P2;durP2;ratioP2
75417;SDS011;63997;52.112;5.420;2023-12-28T00:01:45;3.38;;;1.63;;
75417;SDS011;63997;52.112;5.420;2023-12-28T00:04:12;2.20;;;1.10;;
75417;SDS011;63997;52.112;5.420;2023-12-28T00:06:38;4.85;;;1.20;;
75417;SDS011;63997;52.112;5.420;2023-12-28T00:09:05;6.13;;;2.17;;
75417;SDS011;63997;52.112;5.420;2023-12-28T00:11:37;2.53;;;1.52;;
75417;SDS011;63997;52.112;5.420;2023-12-28T00:14:04;4.22;;;1.42;;
75417;SDS011;63997;52.112;5.420;2023-12-28T00:16:31;5.57;;;1.87;;
75417;SDS011;63997;52.112;5.420;2023-12-28T00:18:59;2.35;;;1.15;;
75417;SDS011;63997;52.112;5.420;2023-12-28T00:21:29;5.10;;;1.10;;
75417;SDS011;63997;52.112;5.420;2023-12-28T00:23:56;6.07;;;1.40;;
75417;SDS011;63997;52.112;5.420;2023-12-28T00:26:22;4.88;;;1.70;;
75417;SDS011;63997;52.112;5.420;2023-12-28T00:28:49;3.77;;;1.77;;
75417;SDS011;63997;52.112;5.420;2023-12-28T00:31:15;3.75;;;1.30;;
75417;SDS011;63997;52.112;5.420;2023-12-28T00:33:42;7.13;;;1.70;;
75417;SDS011;63997;52.112;5.420;2023-12-28T00:36:09;5.10;;;1.50;;
75417;SDS011;63997;52.112;5.420;2023-12-28T00:38:35;3.90;;;1.65;;
75417;SDS011;63997;52.112;5.420;2023-12-28T00:41:02;3.83;;;1.60;;
75417;SDS011;63997;52.112;5.420;2023-12-28T00:43:29;3.55;;;1.35;;
75417;SDS011;63997;52.112;5.420;2023-12-28T00:45:55;4.22;;;1.90;;
75417;SDS011;63997;52.112;5.420;2023-12-28T00:48:22;3.75;;;1.40;;
75417;SDS011;63997;52.112;5.420;2023-12-28T00:50:48;2.80;;;1.63;;
75417;SDS011;63997;52.112;5.420;2023-12-28T00:53:15;4.73;;;1.27;;
75417;SDS011;63997;52.112;5.420;2023-12-28T00:55:42;2.55;;;1.27;;
75417;SDS011;63997;52.112;5.420;2023-12-28T00:58:08;2.33;;;1.17;;
75417;SDS011;63997;52.112;5.420;2023-12-28T01:00:35;5.28;;;1.40;;
75417;SDS011;63997;52.112;5.420;2023-12-28T01:03:01;3.40;;;1.23;;
75417;SDS011;63997;52.112;5.420;2023-12-28T01:05:28;2.20;;;1.07;;
75417;SDS011;63997;52.112;5.420;2023-12-28T01:07:55;2.17;;;1.00;;
75417;SDS011;63997;52.112;5.420;2023-12-28T01:10:22;2.78;;;1.58;;
75417;SDS011;63997;52.112;5.420;2023-12-28T01:12:48;4.97;;;1.65;;
75417;SDS011;63997;52.112;5.420;2023-12-28T01:15:15;4.53;;;1.58;;
75417;SDS011;63997;52.112;5.420;2023-12-28T01:17:44;4.93;;;1.43;;
75417;SDS011;63997;52.112;5.420;2023-12-28T01:20:11;3.13;;;1.10;;
75417;SDS011;63997;52.112;5.420;2023-12-28T01:22:37;2.22;;;0.93;;
75417;SDS011;63997;52.112;5.420;2023-12-28T01:25:04;3.97;;;1.30;;
75417;SDS011;63997;52.112;5.420;2023-12-28T01:27:31;4.90;;;1.73;;
75417;SDS011;63997;52.112;5.420;2023-12-28T01:29:57;3.77;;;1.33;;
75417;SDS011;63997;52.112;5.420;2023-12-28T01:32:24;1.67;;;1.20;;
75417;SDS011;63997;52.112;5.420;2023-12-28T01:34:50;4.72;;;1.52;;
75417;SDS011;63997;52.112;5.420;2023-12-28T01:37:17;8.45;;;1.25;;
75417;SDS011;63997;52.112;5.420;2023-12-28T01:39:44;3.35;;;1.10;;
75417;SDS011;63997;52.112;5.420;2023-12-28T01:42:10;4.57;;;1.13;;
75417;SDS011;63997;52.112;5.420;2023-12-28T01:44:37;4.85;;;1.42;;
75417;SDS011;63997;52.112;5.420;2023-12-28T01:47:04;4.25;;;1.10;;
75417;SDS011;63997;52.112;5.420;2023-12-28T01:49:32;5.15;;;1.65;;
75417;SDS011;63997;52.112;5.420;2023-12-28T01:52:01;5.53;;;1.30;;
75417;SDS011;63997;52.112;5.420;2023-12-28T01:54:28;4.50;;;1.60;;
75417;SDS011;63997;52.112;5.420;2023-12-28T01:56:56;1.45;;;0.90;;
75417;SDS011;63997;52.112;5.420;2023-12-28T01:59:23;1.73;;;1.20;;
75417;SDS011;63997;52.112;5.420;2023-12-28T02:01:50;2.47;;;1.63;;
75417;SDS011;63997;52.112;5.420;2023-12-28T02:04:17;3.67;;;1.33;;
75417;SDS011;63997;52.112;5.420;2023-12-28T02:06:44;4.77;;;1.53;;
75417;SDS011;63997;52.112;5.420;2023-12-28T02:09:11;4.13;;;1.60;;
75417;SDS011;63997;52.112;5.420;2023-12-28T02:11:38;2.90;;;1.60;;
75417;SDS011;63997;52.112;5.420;2023-12-28T02:14:04;3.67;;;1.27;;
75417;SDS011;63997;52.112;5.420;2023-12-28T02:16:36;4.28;;;1.48;;
75417;SDS011;63997;52.112;5.420;2023-12-28T02:19:18;1.97;;;1.20;;
75417;SDS011;63997;52.112;5.420;2023-12-28T02:21:50;4.65;;;1.20;;
75417;SDS011;63997;52.112;5.420;2023-12-28T02:24:18;5.30;;;1.48;;
75417;SDS011;63997;52.112;5.420;2023-12-28T02:26:45;4.00;;;1.25;;
75417;SDS011;63997;52.112;5.420;2023-12-28T02:29:11;3.38;;;1.27;;
75417;SDS011;63997;52.112;5.420;2023-12-28T02:31:39;5.33;;;1.33;;
75417;SDS011;63997;52.112;5.420;2023-12-28T02:34:14;1.98;;;1.17;;
75417;SDS011;63997;52.112;5.420;2023-12-28T02:36:45;4.22;;;1.38;;
75417;SDS011;63997;52.112;5.420;2023-12-28T02:39:14;4.43;;;1.23;;
75417;SDS011;63997;52.112;5.420;2023-12-28T02:41:43;8.85;;;1.38;;
75417;SDS011;63997;52.112;5.420;2023-12-28T02:44:11;3.27;;;0.77;;
75417;SDS011;63997;52.112;5.420;2023-12-28T02:46:38;4.60;;;1.33;;
75417;SDS011;63997;52.112;5.420;2023-12-28T02:49:04;4.05;;;1.08;;
75417;SDS011;63997;52.112;5.420;2023-12-28T02:51:31;2.95;;;0.90;;
75417;SDS011;63997;52.112;5.420;2023-12-28T02:53:58;4.43;;;1.10;;
75417;SDS011;63997;52.112;5.420;2023-12-28T02:56:24;5.60;;;1.73;;
75417;SDS011;63997;52.112;5.420;2023-12-28T02:58:51;5.38;;;1.77;;
75417;SDS011;63997;52.112;5.420;2023-12-28T03:01:17;4.28;;;0.90;;
75417;SDS011;63997;52.112;5.420;2023-12-28T03:03:44;7.03;;;1.30;;
75417;SDS011;63997;52.112;5.420;2023-12-28T03:06:11;9.13;;;1.38;;
75417;SDS011;63997;52.112;5.420;2023-12-28T03:08:37;5.27;;;1.20;;
75417;SDS011;63997;52.112;5.420;2023-12-28T03:11:04;6.15;;;1.65;;
75417;SDS011;63997;52.112;5.420;2023-12-28T03:13:30;7.35;;;1.20;;
75417;SDS011;63997;52.112;5.420;2023-12-28T03:15:58;2.50;;;1.23;;
75417;SDS011;63997;52.112;5.420;2023-12-28T03:18:25;7.13;;;0.93;;
75417;SDS011;63997;52.112;5.420;2023-12-28T03:20:51;4.70;;;0.70;;
75417;SDS011;63997;52.112;5.420;2023-12-28T03:23:18;3.92;;;0.68;;
75417;SDS011;63997;52.112;5.420;2023-12-28T03:25:44;4.82;;;0.80;;
75417;SDS011;63997;52.112;5.420;2023-12-28T03:28:11;6.93;;;0.70;;
75417;SDS011;63997;52.112;5.420;2023-12-28T03:30:37;5.18;;;1.35;;
75417;SDS011;63997;52.112;5.420;2023-12-28T03:33:04;7.07;;;0.97;;
75417;SDS011;63997;52.112;5.420;2023-12-28T03:35:31;5.05;;;0.70;;
75417;SDS011;63997;52.112;5.420;2023-12-28T03:37:57;1.30;;;0.80;;
75417;SDS011;63997;52.112;5.420;2023-12-28T03:40:24;6.55;;;1.83;;
75417;SDS011;63997;52.112;5.420;2023-12-28T03:42:50;6.95;;;1.13;;
75417;SDS011;63997;52.112;5.420;2023-12-28T03:45:17;5.90;;;1.30;;
75417;SDS011;63997;52.112;5.420;2023-12-28T03:47:44;5.43;;;0.98;;
75417;SDS011;63997;52.112;5.420;2023-12-28T03:50:11;6.53;;;1.02;;
75417;SDS011;63997;52.112;5.420;2023-12-28T03:52:37;6.57;;;0.90;;
75417;SDS011;63997;52.112;5.420;2023-12-28T03:55:04;6.40;;;1.17;;
75417;SDS011;63997;52.112;5.420;2023-12-28T03:57:31;5.00;;;0.80;;
75417;SDS011;63997;52.112;5.420;2023-12-28T03:59:58;3.70;;;0.68;;
75417;SDS011;63997;52.112;5.420;2023-12-28T04:02:25;4.00;;;0.80;;
75417;SDS011;63997;52.112;5.420;2023-12-28T04:04:54;4.07;;;0.90;;
75417;SDS011;63997;52.112;5.420;2023-12-28T04:07:22;5.85;;;1.42;;
75417;SDS011;63997;52.112;5.420;2023-12-28T04:09:48;4.90;;;1.27;;
75417;SDS011;63997;52.112;5.420;2023-12-28T04:12:15;5.47;;;1.00;;
75417;SDS011;63997;52.112;5.420;2023-12-28T04:14:41;5.50;;;1.40;;
75417;SDS011;63997;52.112;5.420;2023-12-28T04:17:08;6.78;;;1.02;;
75417;SDS011;63997;52.112;5.420;2023-12-28T04:19:34;2.05;;;0.80;;
75417;SDS011;63997;52.112;5.420;2023-12-28T04:22:01;5.43;;;0.80;;
75417;SDS011;63997;52.112;5.420;2023-12-28T04:24:28;5.82;;;0.90;;
75417;SDS011;63997;52.112;5.420;2023-12-28T04:26:54;4.53;;;1.02;;
75417;SDS011;63997;52.112;5.420;2023-12-28T04:29:21;7.05;;;1.60;;
75417;SDS011;63997;52.112;5.420;2023-12-28T04:31:47;5.82;;;1.17;;
75417;SDS011;63997;52.112;5.420;2023-12-28T04:34:14;7.60;;;1.07;;
75417;SDS011;63997;52.112;5.420;2023-12-28T04:36:41;7.57;;;0.88;;
75417;SDS011;63997;52.112;5.420;2023-12-28T04:39:09;8.90;;;1.45;;
75417;SDS011;63997;52.112;5.420;2023-12-28T04:41:35;5.03;;;1.25;;
75417;SDS011;63997;52.112;5.420;2023-12-28T04:44:02;7.10;;;1.13;;
75417;SDS011;63997;52.112;5.420;2023-12-28T04:46:29;7.67;;;1.10;;
75417;SDS011;63997;52.112;5.420;2023-12-28T04:48:56;6.78;;;1.52;;
75417;SDS011;63997;52.112;5.420;2023-12-28T04:51:22;8.07;;;1.23;;
75417;SDS011;63997;52.112;5.420;2023-12-28T04:53:49;5.75;;;1.40;;
75417;SDS011;63997;52.112;5.420;2023-12-28T04:56:19;6.70;;;1.40;;
75417;SDS011;63997;52.112;5.420;2023-12-28T04:58:46;11.03;;;1.30;;
75417;SDS011;63997;52.112;5.420;2023-12-28T05:01:13;7.18;;;1.30;;
75417;SDS011;63997;52.112;5.420;2023-12-28T05:03:40;6.55;;;1.42;;
75417;SDS011;63997;52.112;5.420;2023-12-28T05:06:06;7.90;;;1.50;;
75417;SDS011;63997;52.112;5.420;2023-12-28T05:08:33;11.77;;;1.08;;
75417;SDS011;63997;52.112;5.420;2023-12-28T05:11:00;10.53;;;1.60;;
75417;SDS011;63997;52.112;5.420;2023-12-28T05:13:26;8.38;;;0.90;;
75417;SDS011;63997;52.112;5.420;2023-12-28T05:15:53;10.48;;;1.17;;
75417;SDS011;63997;52.112;5.420;2023-12-28T05:18:20;3.60;;;0.73;;
75417;SDS011;63997;52.112;5.420;2023-12-28T05:20:46;4.68;;;1.02;;
75417;SDS011;63997;52.112;5.420;2023-12-28T05:23:13;3.63;;;0.80;;
75417;SDS011;63997;52.112;5.420;2023-12-28T05:25:39;11.73;;;1.00;;
75417;SDS011;63997;52.112;5.420;2023-12-28T05:28:06;7.32;;;0.82;;
75417;SDS011;63997;52.112;5.420;2023-12-28T05:30:32;7.90;;;1.55;;
75417;SDS011;63997;52.112;5.420;2023-12-28T05:32:59;6.53;;;0.90;;
75417;SDS011;63997;52.112;5.420;2023-12-28T05:35:26;6.50;;;1.23;;
75417;SDS011;63997;52.112;5.420;2023-12-28T05:37:52;7.43;;;1.00;;
75417;SDS011;63997;52.112;5.420;2023-12-28T05:40:20;7.20;;;1.30;;
75417;SDS011;63997;52.112;5.420;2023-12-28T05:42:46;6.60;;;1.00;;
75417;SDS011;63997;52.112;5.420;2023-12-28T05:45:13;8.25;;;0.90;;
75417;SDS011;63997;52.112;5.420;2023-12-28T05:47:39;10.77;;;1.20;;
75417;SDS011;63997;52.112;5.420;2023-12-28T05:50:06;13.40;;;1.40;;
75417;SDS011;63997;52.112;5.420;2023-12-28T05:52:33;11.35;;;1.35;;
75417;SDS011;63997;52.112;5.420;2023-12-28T05:55:00;9.73;;;1.05;;
75417;SDS011;63997;52.112;5.420;2023-12-28T05:57:26;7.43;;;0.80;;
75417;SDS011;63997;52.112;5.420;2023-12-28T05:59:56;8.53;;;1.00;;
75417;SDS011;63997;52.112;5.420;2023-12-28T06:02:23;5.28;;;1.20;;
75417;SDS011;63997;52.112;5.420;2023-12-28T06:04:50;5.68;;;0.65;;
75417;SDS011;63997;52.112;5.420;2023-12-28T06:07:16;8.75;;;1.15;;
75417;SDS011;63997;52.112;5.420;2023-12-28T06:09:43;13.32;;;1.17;;
75417;SDS011;63997;52.112;5.420;2023-12-28T06:12:11;8.80;;;1.37;;
75417;SDS011;63997;52.112;5.420;2023-12-28T06:14:37;7.78;;;1.17;;
75417;SDS011;63997;52.112;5.420;2023-12-28T06:17:04;10.70;;;1.65;;
75417;SDS011;63997;52.112;5.420;2023-12-28T06:19:31;11.57;;;1.20;;
75417;SDS011;63997;52.112;5.420;2023-12-28T06:21:58;7.82;;;0.98;;
75417;SDS011;63997;52.112;5.420;2023-12-28T06:24:25;8.97;;;1.10;;
75417;SDS011;63997;52.112;5.420;2023-12-28T06:26:51;8.90;;;1.70;;
75417;SDS011;63997;52.112;5.420;2023-12-28T06:29:18;8.95;;;1.25;;
75417;SDS011;63997;52.112;5.420;2023-12-28T06:31:44;10.50;;;1.75;;
75417;SDS011;63997;52.112;5.420;2023-12-28T06:34:11;4.88;;;1.10;;
75417;SDS011;63997;52.112;5.420;2023-12-28T06:36:38;11.27;;;1.50;;
75417;SDS011;63997;52.112;5.420;2023-12-28T06:39:04;9.90;;;1.30;;
75417;SDS011;63997;52.112;5.420;2023-12-28T06:41:31;12.85;;;1.02;;
75417;SDS011;63997;52.112;5.420;2023-12-28T06:43:57;7.57;;;1.10;;
75417;SDS011;63997;52.112;5.420;2023-12-28T06:46:24;13.75;;;1.73;;
75417;SDS011;63997;52.112;5.420;2023-12-28T06:48:50;9.47;;;1.33;;
75417;SDS011;63997;52.112;5.420;2023-12-28T06:51:21;8.65;;;1.08;;
75417;SDS011;63997;52.112;5.420;2023-12-28T06:53:48;13.35;;;1.48;;
75417;SDS011;63997;52.112;5.420;2023-12-28T06:56:16;10.68;;;1.80;;
75417;SDS011;63997;52.112;5.420;2023-12-28T06:58:43;10.23;;;2.30;;
75417;SDS011;63997;52.112;5.420;2023-12-28T07:01:09;9.93;;;1.50;;
75417;SDS011;63997;52.112;5.420;2023-12-28T07:03:38;9.95;;;1.35;;
75417;SDS011;63997;52.112;5.420;2023-12-28T07:06:05;14.40;;;1.83;;
75417;SDS011;63997;52.112;5.420;2023-12-28T07:08:31;14.20;;;1.20;;
75417;SDS011;63997;52.112;5.420;2023-12-28T07:11:02;6.68;;;1.40;;
75417;SDS011;63997;52.112;5.420;2023-12-28T07:13:29;9.60;;;1.07;;
75417;SDS011;63997;52.112;5.420;2023-12-28T07:15:56;19.88;;;2.05;;
75417;SDS011;63997;52.112;5.420;2023-12-28T07:18:25;15.65;;;1.90;;
75417;SDS011;63997;52.112;5.420;2023-12-28T07:20:52;10.75;;;1.35;;
75417;SDS011;63997;52.112;5.420;2023-12-28T07:23:19;10.63;;;1.73;;
75417;SDS011;63997;52.112;5.420;2023-12-28T07:25:45;10.63;;;1.00;;
75417;SDS011;63997;52.112;5.420;2023-12-28T07:28:12;16.35;;;1.67;;
75417;SDS011;63997;52.112;5.420;2023-12-28T07:30:39;11.25;;;1.50;;
75417;SDS011;63997;52.112;5.420;2023-12-28T07:33:06;11.68;;;1.45;;
75417;SDS011;63997;52.112;5.420;2023-12-28T07:35:32;8.95;;;1.23;;
75417;SDS011;63997;52.112;5.420;2023-12-28T07:37:59;9.33;;;1.33;;
75417;SDS011;63997;52.112;5.420;2023-12-28T07:40:26;8.55;;;1.20;;
75417;SDS011;63997;52.112;5.420;2023-12-28T07:42:53;15.18;;;1.63;;
75417;SDS011;63997;52.112;5.420;2023-12-28T07:45:19;12.55;;;1.88;;
75417;SDS011;63997;52.112;5.420;2023-12-28T07:47:50;13.88;;;1.35;;
75417;SDS011;63997;52.112;5.420;2023-12-28T07:50:18;15.30;;;1.47;;
75417;SDS011;63997;52.112;5.420;2023-12-28T07:52:45;11.90;;;1.85;;
75417;SDS011;63997;52.112;5.420;2023-12-28T07:55:13;10.95;;;1.67;;
75417;SDS011;63997;52.112;5.420;2023-12-28T07:57:40;7.90;;;1.42;;
75417;SDS011;63997;52.112;5.420;2023-12-28T08:00:07;11.30;;;2.13;;
75417;SDS011;63997;52.112;5.420;2023-12-28T08:02:35;9.07;;;1.30;;
75417;SDS011;63997;52.112;5.420;2023-12-28T08:05:02;11.23;;;1.35;;
75417;SDS011;63997;52.112;5.420;2023-12-28T08:07:29;12.38;;;1.60;;
75417;SDS011;63997;52.112;5.420;2023-12-28T08:09:55;7.00;;;1.27;;
75417;SDS011;63997;52.112;5.420;2023-12-28T08:12:22;10.32;;;1.20;;
75417;SDS011;63997;52.112;5.420;2023-12-28T08:14:50;8.50;;;1.10;;
75417;SDS011;63997;52.112;5.420;2023-12-28T08:17:17;9.35;;;1.35;;
75417;SDS011;63997;52.112;5.420;2023-12-28T08:19:44;11.45;;;2.00;;
75417;SDS011;63997;52.112;5.420;2023-12-28T08:22:11;14.50;;;1.77;;
75417;SDS011;63997;52.112;5.420;2023-12-28T08:24:37;4.80;;;1.23;;
75417;SDS011;63997;52.112;5.420;2023-12-28T08:27:04;19.67;;;2.00;;
75417;SDS011;63997;52.112;5.420;2023-12-28T08:29:31;21.42;;;1.55;;
75417;SDS011;63997;52.112;5.420;2023-12-28T08:31:57;9.07;;;1.10;;
75417;SDS011;63997;52.112;5.420;2023-12-28T08:34:24;10.00;;;1.33;;
75417;SDS011;63997;52.112;5.420;2023-12-28T08:36:50;10.43;;;1.48;;
75417;SDS011;63997;52.112;5.420;2023-12-28T08:39:18;10.53;;;1.10;;
75417;SDS011;63997;52.112;5.420;2023-12-28T08:41:45;11.57;;;1.30;;
75417;SDS011;63997;52.112;5.420;2023-12-28T08:44:11;17.02;;;2.42;;
75417;SDS011;63997;52.112;5.420;2023-12-28T08:46:38;14.15;;;1.92;;
75417;SDS011;63997;52.112;5.420;2023-12-28T08:49:04;6.68;;;1.70;;
75417;SDS011;63997;52.112;5.420;2023-12-28T08:51:31;11.57;;;2.20;;
75417;SDS011;63997;52.112;5.420;2023-12-28T08:53:58;14.10;;;1.27;;
75417;SDS011;63997;52.112;5.420;2023-12-28T08:56:24;10.63;;;1.38;;
75417;SDS011;63997;52.112;5.420;2023-12-28T08:58:51;11.20;;;1.45;;
75417;SDS011;63997;52.112;5.420;2023-12-28T09:01:22;12.18;;;1.80;;
75417;SDS011;63997;52.112;5.420;2023-12-28T09:03:52;20.03;;;2.23;;
75417;SDS011;63997;52.112;5.420;2023-12-28T09:06:20;10.07;;;1.25;;
75417;SDS011;63997;52.112;5.420;2023-12-28T09:08:48;10.75;;;1.05;;
75417;SDS011;63997;52.112;5.420;2023-12-28T09:11:17;8.70;;;1.02;;
75417;SDS011;63997;52.112;5.420;2023-12-28T09:13:44;10.25;;;1.33;;
75417;SDS011;63997;52.112;5.420;2023-12-28T09:16:11;10.37;;;1.23;;
75417;SDS011;63997;52.112;5.420;2023-12-28T09:18:39;11.73;;;1.05;;
75417;SDS011;63997;52.112;5.420;2023-12-28T09:21:07;11.63;;;1.30;;
75417;SDS011;63997;52.112;5.420;2023-12-28T09:23:35;16.02;;;1.67;;
75417;SDS011;63997;52.112;5.420;2023-12-28T09:26:02;11.35;;;1.73;;
75417;SDS011;63997;52.112;5.420;2023-12-28T09:28:30;14.23;;;1.97;;
75417;SDS011;63997;52.112;5.420;2023-12-28T09:30:57;19.00;;;1.60;;
75417;SDS011;63997;52.112;5.420;2023-12-28T09:33:24;11.00;;;1.25;;
75417;SDS011;63997;52.112;5.420;2023-12-28T09:35:51;15.80;;;1.45;;
75417;SDS011;63997;52.112;5.420;2023-12-28T09:38:19;11.23;;;1.58;;
75417;SDS011;63997;52.112;5.420;2023-12-28T09:40:46;12.20;;;1.60;;
75417;SDS011;63997;52.112;5.420;2023-12-28T09:45:51;8.43;;;1.30;;
75417;SDS011;63997;52.112;5.420;2023-12-28T09:48:20;16.08;;;2.10;;
75417;SDS011;63997;52.112;5.420;2023-12-28T09:50:51;11.88;;;1.25;;
75417;SDS011;63997;52.112;5.420;2023-12-28T09:53:22;14.33;;;1.60;;
75417;SDS011;63997;52.112;5.420;2023-12-28T09:55:49;9.88;;;1.40;;
75417;SDS011;63997;52.112;5.420;2023-12-28T09:58:18;11.30;;;1.48;;
75417;SDS011;63997;52.112;5.420;2023-12-28T10:00:46;12.95;;;0.85;;
75417;SDS011;63997;52.112;5.420;2023-12-28T10:03:15;6.50;;;1.40;;
75417;SDS011;63997;52.112;5.420;2023-12-28T10:05:44;9.27;;;1.60;;
75417;SDS011;63997;52.112;5.420;2023-12-28T10:08:12;16.50;;;1.52;;
75417;SDS011;63997;52.112;5.420;2023-12-28T10:10:40;11.45;;;1.60;;
75417;SDS011;63997;52.112;5.420;2023-12-28T10:13:07;12.88;;;1.73;;
75417;SDS011;63997;52.112;5.420;2023-12-28T10:15:35;13.30;;;1.33;;
75417;SDS011;63997;52.112;5.420;2023-12-28T10:18:02;13.10;;;1.57;;
75417;SDS011;63997;52.112;5.420;2023-12-28T10:20:30;12.45;;;1.90;;
75417;SDS011;63997;52.112;5.420;2023-12-28T10:22:57;9.85;;;1.10;;
75417;SDS011;63997;52.112;5.420;2023-12-28T10:25:26;13.05;;;1.88;;
75417;SDS011;63997;52.112;5.420;2023-12-28T10:27:53;9.45;;;1.60;;
75417;SDS011;63997;52.112;5.420;2023-12-28T10:30:21;9.33;;;1.20;;
75417;SDS011;63997;52.112;5.420;2023-12-28T10:32:48;14.40;;;1.35;;
75417;SDS011;63997;52.112;5.420;2023-12-28T10:35:16;14.25;;;1.80;;
75417;SDS011;63997;52.112;5.420;2023-12-28T10:37:43;7.65;;;1.73;;
75417;SDS011;63997;52.112;5.420;2023-12-28T10:40:12;8.82;;;1.50;;
75417;SDS011;63997;52.112;5.420;2023-12-28T10:42:54;9.17;;;0.87;;
75417;SDS011;63997;52.112;5.420;2023-12-28T10:45:24;10.30;;;1.45;;
75417;SDS011;63997;52.112;5.420;2023-12-28T10:50:38;9.48;;;1.40;;
75417;SDS011;63997;52.112;5.420;2023-12-28T10:56:10;15.03;;;2.13;;
75417;SDS011;63997;52.112;5.420;2023-12-28T11:01:31;16.40;;;1.73;;
75417;SDS011;63997;52.112;5.420;2023-12-28T11:04:06;11.10;;;1.67;;
75417;SDS011;63997;52.112;5.420;2023-12-28T11:06:36;19.95;;;1.52;;
75417;SDS011;63997;52.112;5.420;2023-12-28T11:09:04;14.13;;;1.40;;
75417;SDS011;63997;52.112;5.420;2023-12-28T11:11:36;15.77;;;1.20;;
75417;SDS011;63997;52.112;5.420;2023-12-28T11:14:03;11.18;;;1.77;;
75417;SDS011;63997;52.112;5.420;2023-12-28T11:16:31;18.33;;;1.70;;
75417;SDS011;63997;52.112;5.420;2023-12-28T11:18:59;8.82;;;1.73;;
75417;SDS011;63997;52.112;5.420;2023-12-28T11:21:26;16.77;;;1.80;;
75417;SDS011;63997;52.112;5.420;2023-12-28T11:23:53;8.52;;;1.25;;
75417;SDS011;63997;52.112;5.420;2023-12-28T11:26:21;15.75;;;1.63;;
75417;SDS011;63997;52.112;5.420;2023-12-28T11:28:48;12.07;;;1.75;;
75417;SDS011;63997;52.112;5.420;2023-12-28T11:31:16;12.02;;;1.67;;
75417;SDS011;63997;52.112;5.420;2023-12-28T11:33:44;15.50;;;1.80;;
75417;SDS011;63997;52.112;5.420;2023-12-28T11:36:19;14.73;;;1.58;;
75417;SDS011;63997;52.112;5.420;2023-12-28T11:38:50;14.70;;;1.30;;
75417;SDS011;63997;52.112;5.420;2023-12-28T11:41:20;8.18;;;1.63;;
75417;SDS011;63997;52.112;5.420;2023-12-28T11:43:53;10.18;;;1.42;;
75417;SDS011;63997;52.112;5.420;2023-12-28T11:46:21;13.73;;;2.37;;
75417;SDS011;63997;52.112;5.420;2023-12-28T11:48:48;10.25;;;2.10;;
75417;SDS011;63997;52.112;5.420;2023-12-28T11:51:15;9.32;;;1.30;;
75417;SDS011;63997;52.112;5.420;2023-12-28T11:53:43;14.18;;;2.42;;
75417;SDS011;63997;52.112;5.420;2023-12-28T11:56:14;9.90;;;1.88;;
75417;SDS011;63997;52.112;5.420;2023-12-28T11:58:42;11.80;;;1.10;;
75417;SDS011;63997;52.112;5.420;2023-12-28T12:01:12;19.92;;;1.88;;
75417;SDS011;63997;52.112;5.420;2023-12-28T12:03:39;12.85;;;1.60;;
75417;SDS011;63997;52.112;5.420;2023-12-28T12:06:06;14.20;;;1.58;;
75417;SDS011;63997;52.112;5.420;2023-12-28T12:08:33;13.88;;;1.92;;
75417;SDS011;63997;52.112;5.420;2023-12-28T12:11:04;15.57;;;1.73;;
75417;SDS011;63997;52.112;5.420;2023-12-28T12:13:31;11.05;;;1.67;;
75417;SDS011;63997;52.112;5.420;2023-12-28T12:15:58;13.68;;;1.67;;
75417;SDS011;63997;52.112;5.420;2023-12-28T12:18:25;13.02;;;1.80;;
75417;SDS011;63997;52.112;5.420;2023-12-28T12:20:52;15.45;;;1.90;;
75417;SDS011;63997;52.112;5.420;2023-12-28T12:23:19;9.33;;;1.30;;
75417;SDS011;63997;52.112;5.420;2023-12-28T12:25:46;11.95;;;1.42;;
75417;SDS011;63997;52.112;5.420;2023-12-28T12:28:13;17.60;;;1.60;;
75417;SDS011;63997;52.112;5.420;2023-12-28T12:30:48;10.77;;;1.13;;
75417;SDS011;63997;52.112;5.420;2023-12-28T12:33:22;6.00;;;1.55;;
75417;SDS011;63997;52.112;5.420;2023-12-28T12:35:51;10.73;;;1.17;;
75417;SDS011;63997;52.112;5.420;2023-12-28T12:38:18;15.95;;;2.45;;
75417;SDS011;63997;52.112;5.420;2023-12-28T12:40:45;14.48;;;2.35;;
75417;SDS011;63997;52.112;5.420;2023-12-28T12:43:11;17.00;;;2.10;;
75417;SDS011;63997;52.112;5.420;2023-12-28T12:45:38;10.48;;;1.40;;
75417;SDS011;63997;52.112;5.420;2023-12-28T12:48:05;12.00;;;1.50;;
75417;SDS011;63997;52.112;5.420;2023-12-28T12:50:32;7.70;;;1.15;;
75417;SDS011;63997;52.112;5.420;2023-12-28T12:53:04;14.50;;;2.13;;
75417;SDS011;63997;52.112;5.420;2023-12-28T12:55:31;11.63;;;1.95;;
75417;SDS011;63997;52.112;5.420;2023-12-28T12:57:58;18.90;;;2.13;;
75417;SDS011;63997;52.112;5.420;2023-12-28T13:00:25;8.93;;;1.47;;
75417;SDS011;63997;52.112;5.420;2023-12-28T13:02:51;14.10;;;1.98;;
75417;SDS011;63997;52.112;5.420;2023-12-28T13:05:19;10.10;;;1.55;;
75417;SDS011;63997;52.112;5.420;2023-12-28T13:07:46;12.63;;;1.30;;
75417;SDS011;63997;52.112;5.420;2023-12-28T13:10:13;13.18;;;2.00;;
75417;SDS011;63997;52.112;5.420;2023-12-28T13:12:40;9.97;;;1.30;;
75417;SDS011;63997;52.112;5.420;2023-12-28T13:15:08;10.80;;;1.17;;
75417;SDS011;63997;52.112;5.420;2023-12-28T13:17:36;12.30;;;1.58;;
75417;SDS011;63997;52.112;5.420;2023-12-28T13:20:04;13.68;;;2.10;;
75417;SDS011;63997;52.112;5.420;2023-12-28T13:22:32;13.00;;;1.83;;
75417;SDS011;63997;52.112;5.420;2023-12-28T13:25:00;10.00;;;0.90;;
75417;SDS011;63997;52.112;5.420;2023-12-28T13:27:28;14.40;;;1.42;;
75417;SDS011;63997;52.112;5.420;2023-12-28T13:29:55;11.32;;;1.23;;
75417;SDS011;63997;52.112;5.420;2023-12-28T13:32:21;15.65;;;1.88;;
75417;SDS011;63997;52.112;5.420;2023-12-28T13:34:49;11.38;;;1.25;;
75417;SDS011;63997;52.112;5.420;2023-12-28T13:37:19;12.20;;;1.60;;
75417;SDS011;63997;52.112;5.420;2023-12-28T13:39:46;14.90;;;2.35;;
75417;SDS011;63997;52.112;5.420;2023-12-28T13:42:13;13.15;;;1.20;;
75417;SDS011;63997;52.112;5.420;2023-12-28T13:44:40;8.80;;;1.48;;
75417;SDS011;63997;52.112;5.420;2023-12-28T13:47:07;12.23;;;1.38;;
75417;SDS011;63997;52.112;5.420;2023-12-28T13:49:34;11.50;;;1.67;;
75417;SDS011;63997;52.112;5.420;2023-12-28T13:52:01;7.63;;;1.55;;
75417;SDS011;63997;52.112;5.420;2023-12-28T13:54:28;18.05;;;2.63;;
75417;SDS011;63997;52.112;5.420;2023-12-28T13:56:54;9.23;;;1.48;;
75417;SDS011;63997;52.112;5.420;2023-12-28T13:59:23;14.60;;;1.80;;
75417;SDS011;63997;52.112;5.420;2023-12-28T14:01:50;10.50;;;2.37;;
75417;SDS011;63997;52.112;5.420;2023-12-28T14:04:17;9.90;;;1.65;;
75417;SDS011;63997;52.112;5.420;2023-12-28T14:06:43;9.15;;;1.58;;
75417;SDS011;63997;52.112;5.420;2023-12-28T14:09:10;12.25;;;1.48;;
75417;SDS011;63997;52.112;5.420;2023-12-28T14:11:38;14.32;;;1.92;;
75417;SDS011;63997;52.112;5.420;2023-12-28T14:14:05;8.10;;;1.30;;
75417;SDS011;63997;52.112;5.420;2023-12-28T14:16:31;6.78;;;1.08;;
75417;SDS011;63997;52.112;5.420;2023-12-28T14:18:57;10.10;;;1.63;;
75417;SDS011;63997;52.112;5.420;2023-12-28T14:21:24;9.00;;;1.17;;
75417;SDS011;63997;52.112;5.420;2023-12-28T14:23:51;11.65;;;1.33;;
75417;SDS011;63997;52.112;5.420;2023-12-28T14:26:18;12.03;;;1.47;;
75417;SDS011;63997;52.112;5.420;2023-12-28T14:28:47;7.00;;;1.25;;
75417;SDS011;63997;52.112;5.420;2023-12-28T14:31:14;13.07;;;1.92;;
75417;SDS011;63997;52.112;5.420;2023-12-28T14:33:41;11.88;;;1.95;;
75417;SDS011;63997;52.112;5.420;2023-12-28T14:39:04;12.83;;;1.73;;
75417;SDS011;63997;52.112;5.420;2023-12-28T14:41:33;13.63;;;2.38;;
75417;SDS011;63997;52.112;5.420;2023-12-28T14:43:59;16.95;;;1.63;;
75417;SDS011;63997;52.112;5.420;2023-12-28T14:46:26;8.55;;;1.30;;
75417;SDS011;63997;52.112;5.420;2023-12-28T14:48:53;11.45;;;2.80;;
75417;SDS011;63997;52.112;5.420;2023-12-28T14:51:20;19.13;;;1.60;;
75417;SDS011;63997;52.112;5.420;2023-12-28T14:53:48;12.20;;;2.17;;
75417;SDS011;63997;52.112;5.420;2023-12-28T14:56:14;10.35;;;1.75;;